Time;durP1;ratioP1;P1;durP2;ratioP2;P2;SDS_P1;SDS_P2;PMS_P1;PMS_P2;Temp;Humidity;BMP_temperature;BMP_pressure;BME280_temperature;BME280_humidity;BME280_pressure;Samples;Min_cycle;Max_cycle;Signal;HPM_P1;HPM_P2
2023/08/21 00:01:15;;;;;;;7.38;4.78;;;;;;;;;;5020253;28;20523;-85
2023/08/21 00:03:40;;;;;;;6.97;4.40;;;;;;;;;;5022332;28;20116;-83
2023/08/21 00:06:06;;;;;;;7.00;5.07;;;;;;;;;;5018398;28;20037;-83
2023/08/21 00:08:31;;;;;;;6.35;4.85;;;;;;;;;;5029215;28;20029;-84
2023/08/21 00:10:57;;;;;;;6.22;4.68;;;;;;;;;;5005786;28;20076;-83
2023/08/21 00:13:22;;;;;;;8.30;4.80;;;;;;;;;;5015532;28;20493;-85
2023/08/21 00:15:48;;;;;;;5.93;4.60;;;;;;;;;;5023800;28;20048;-85
2023/08/21 00:18:14;;;;;;;7.07;4.65;;;;;;;;;;5020777;28;20025;-85
2023/08/21 00:20:41;;;;;;;8.05;4.90;;;;;;;;;;5007850;28;20026;-84
2023/08/21 00:23:07;;;;;;;6.35;4.80;;;;;;;;;;5021287;28;20034;-83
2023/08/21 00:25:33;;;;;;;7.20;4.78;;;;;;;;;;5020450;28;20037;-84
2023/08/21 00:27:59;;;;;;;6.03;4.50;;;;;;;;;;5023972;28;20075;-83
2023/08/21 00:30:26;;;;;;;6.63;4.63;;;;;;;;;;5017204;28;20053;-84
2023/08/21 00:32:52;;;;;;;7.20;4.93;;;;;;;;;;5023558;28;20058;-85
2023/08/21 00:35:19;;;;;;;6.18;4.78;;;;;;;;;;5011594;28;20034;-85
2023/08/21 00:37:44;;;;;;;6.55;5.00;;;;;;;;;;5014473;28;20038;-85
2023/08/21 00:40:10;;;;;;;9.15;5.10;;;;;;;;;;5029332;28;20041;-83
2023/08/21 00:42:36;;;;;;;8.05;4.97;;;;;;;;;;5025535;28;20065;-83
2023/08/21 00:45:03;;;;;;;8.15;5.97;;;;;;;;;;5007259;28;20049;-83
2023/08/21 00:47:28;;;;;;;9.65;5.10;;;;;;;;;;5014458;28;20029;-83
2023/08/21 00:49:55;;;;;;;6.68;4.85;;;;;;;;;;5015685;28;20040;-85
2023/08/21 00:52:20;;;;;;;6.40;4.80;;;;;;;;;;5019370;28;20022;-85
2023/08/21 00:54:46;;;;;;;6.90;4.60;;;;;;;;;;5008023;28;20297;-85
2023/08/21 00:57:12;;;;;;;7.85;5.22;;;;;;;;;;5010065;28;20890;-84
2023/08/21 00:59:38;;;;;;;7.38;4.80;;;;;;;;;;5012587;28;20552;-84
2023/08/21 01:02:04;;;;;;;7.07;4.65;;;;;;;;;;5017113;28;20029;-84
2023/08/21 01:04:29;;;;;;;7.43;5.00;;;;;;;;;;5024227;28;20030;-83
2023/08/21 01:06:57;;;;;;;8.75;4.85;;;;;;;;;;5018806;28;20033;-83
2023/08/21 01:10:07;;;;;;;7.00;4.60;;;;;;;;;;5014407;28;20029;-85
2023/08/21 01:12:51;;;;;;;8.07;4.75;;;;;;;;;;4974949;28;20418;-84
2023/08/21 01:15:17;;;;;;;5.93;4.68;;;;;;;;;;5002792;28;20096;-83
2023/08/21 01:17:45;;;;;;;7.50;4.93;;;;;;;;;;5008587;28;20061;-83
2023/08/21 01:20:11;;;;;;;6.85;4.72;;;;;;;;;;5007578;28;20029;-83
2023/08/21 01:22:39;;;;;;;6.10;4.30;;;;;;;;;;4986865;28;20026;-83
2023/08/21 01:25:06;;;;;;;8.25;4.45;;;;;;;;;;5005516;28;20033;-85
2023/08/21 01:27:33;;;;;;;8.63;4.32;;;;;;;;;;5007281;28;20496;-85
2023/08/21 01:30:02;;;;;;;8.15;4.68;;;;;;;;;;5024385;28;20029;-85
2023/08/21 01:32:52;;;;;;;6.82;4.63;;;;;;;;;;5014541;28;20105;-85
2023/08/21 01:35:18;;;;;;;7.78;4.80;;;;;;;;;;5005864;28;20037;-85
2023/08/21 01:37:44;;;;;;;7.25;5.07;;;;;;;;;;5010494;28;20029;-85
2023/08/21 01:40:10;;;;;;;6.50;4.63;;;;;;;;;;5011925;28;20049;-83
2023/08/21 01:42:35;;;;;;;8.85;5.07;;;;;;;;;;5022078;28;20089;-83
2023/08/21 01:45:01;;;;;;;5.72;4.43;;;;;;;;;;5012403;28;20064;-84
2023/08/21 01:47:27;;;;;;;7.18;4.60;;;;;;;;;;5021575;28;20033;-83
2023/08/21 01:49:53;;;;;;;7.40;4.80;;;;;;;;;;5016262;28;20036;-83
2023/08/21 01:52:19;;;;;;;8.45;4.53;;;;;;;;;;5022104;28;20381;-85
2023/08/21 01:54:44;;;;;;;7.05;4.40;;;;;;;;;;5002269;28;20037;-86
2023/08/21 01:57:10;;;;;;;5.30;4.53;;;;;;;;;;5018176;28;20036;-83
2023/08/21 01:59:35;;;;;;;7.45;4.82;;;;;;;;;;5014424;28;20056;-84
2023/08/21 02:02:01;;;;;;;7.40;4.50;;;;;;;;;;5006757;28;20135;-84
2023/08/21 02:04:26;;;;;;;8.05;4.78;;;;;;;;;;5011175;28;20038;-85
2023/08/21 02:06:52;;;;;;;9.73;5.05;;;;;;;;;;5019184;28;20163;-84
2023/08/21 02:09:17;;;;;;;8.10;5.15;;;;;;;;;;5002060;28;20017;-86
2023/08/21 02:11:43;;;;;;;5.93;4.78;;;;;;;;;;5018878;28;20022;-86
2023/08/21 02:14:08;;;;;;;6.60;4.30;;;;;;;;;;5009986;28;20045;-85
2023/08/21 02:16:34;;;;;;;7.18;4.05;;;;;;;;;;5014427;28;20029;-84
2023/08/21 02:18:59;;;;;;;7.10;4.50;;;;;;;;;;5004498;28;20049;-84
2023/08/21 02:21:25;;;;;;;6.55;4.43;;;;;;;;;;5004646;28;20088;-84
2023/08/21 02:23:50;;;;;;;9.02;4.60;;;;;;;;;;5019598;28;20033;-84
2023/08/21 02:26:16;;;;;;;9.63;4.47;;;;;;;;;;5010073;28;20033;-86
2023/08/21 02:28:43;;;;;;;5.95;4.18;;;;;;;;;;5021892;28;20030;-85
2023/08/21 02:31:12;;;;;;;5.90;4.18;;;;;;;;;;5018287;28;20101;-85
2023/08/21 02:33:38;;;;;;;9.07;4.53;;;;;;;;;;4997982;28;20559;-85
2023/08/21 02:36:03;;;;;;;10.25;4.35;;;;;;;;;;5022683;28;20022;-85
2023/08/21 02:38:29;;;;;;;8.35;5.05;;;;;;;;;;5025484;28;20029;-84
2023/08/21 02:40:56;;;;;;;9.55;4.43;;;;;;;;;;5013635;28;20040;-83
2023/08/21 02:43:22;;;;;;;7.10;4.82;;;;;;;;;;5003474;28;20038;-84
2023/08/21 02:45:47;;;;;;;5.80;4.80;;;;;;;;;;5005414;28;20030;-86
2023/08/21 02:48:13;;;;;;;7.07;4.50;;;;;;;;;;5012052;28;20071;-86
2023/08/21 02:50:38;;;;;;;7.55;4.57;;;;;;;;;;5008370;28;20050;-85
2023/08/21 02:53:04;;;;;;;9.43;5.00;;;;;;;;;;5020325;28;20117;-84
2023/08/21 02:55:29;;;;;;;8.05;4.50;;;;;;;;;;5016436;28;20033;-83
2023/08/21 02:57:55;;;;;;;8.50;4.63;;;;;;;;;;5027417;28;20060;-83
2023/08/21 03:00:20;;;;;;;8.90;4.60;;;;;;;;;;5014957;28;20136;-85
2023/08/21 03:02:46;;;;;;;7.72;4.50;;;;;;;;;;5022175;28;20057;-85
2023/08/21 03:05:11;;;;;;;10.63;4.72;;;;;;;;;;5015512;28;20458;-86
2023/08/21 03:07:37;;;;;;;5.35;4.30;;;;;;;;;;5002005;28;20033;-85
2023/08/21 03:10:03;;;;;;;6.75;4.50;;;;;;;;;;5017647;28;20061;-84
2023/08/21 03:12:28;;;;;;;6.63;4.35;;;;;;;;;;5022090;28;20026;-85
2023/08/21 03:14:54;;;;;;;9.00;4.68;;;;;;;;;;5004499;28;20026;-85
2023/08/21 03:17:20;;;;;;;6.97;4.43;;;;;;;;;;5011831;28;20515;-84
2023/08/21 03:19:45;;;;;;;8.15;4.13;;;;;;;;;;5004476;28;20046;-86
2023/08/21 03:22:11;;;;;;;6.22;4.53;;;;;;;;;;5014098;28;20033;-86
2023/08/21 03:24:37;;;;;;;6.00;4.22;;;;;;;;;;5022072;28;20038;-85
2023/08/21 03:27:02;;;;;;;7.82;4.20;;;;;;;;;;5007388;28;20444;-84
2023/08/21 03:29:28;;;;;;;7.18;4.25;;;;;;;;;;5018412;28;20029;-83
2023/08/21 03:31:56;;;;;;;7.70;4.22;;;;;;;;;;5016021;28;20029;-84
2023/08/21 03:34:22;;;;;;;8.77;4.28;;;;;;;;;;5015422;28;20378;-84
2023/08/21 03:36:49;;;;;;;7.22;4.10;;;;;;;;;;5024638;28;20029;-84
2023/08/21 03:39:15;;;;;;;7.35;4.40;;;;;;;;;;5020483;28;20144;-85
2023/08/21 03:41:44;;;;;;;9.32;4.70;;;;;;;;;;5007861;28;20029;-86
2023/08/21 03:44:10;;;;;;;8.45;4.38;;;;;;;;;;5010930;28;20026;-85
2023/08/21 03:46:35;;;;;;;6.70;4.30;;;;;;;;;;4989262;28;20036;-84
2023/08/21 03:49:01;;;;;;;9.23;4.50;;;;;;;;;;5014362;28;20464;-84
2023/08/21 03:51:26;;;;;;;6.47;4.43;;;;;;;;;;5013856;28;20108;-84
2023/08/21 03:53:52;;;;;;;6.65;4.25;;;;;;;;;;4982971;28;20036;-84
2023/08/21 03:56:19;;;;;;;9.20;4.40;;;;;;;;;;5025986;28;20052;-85
2023/08/21 03:58:44;;;;;;;8.98;4.40;;;;;;;;;;5014302;28;20034;-85
2023/08/21 04:01:10;;;;;;;8.10;4.45;;;;;;;;;;4988275;28;20038;-85
2023/08/21 04:03:36;;;;;;;6.30;4.32;;;;;;;;;;5011603;28;20120;-84
2023/08/21 04:06:02;;;;;;;8.80;4.40;;;;;;;;;;5007000;28;20444;-85
2023/08/21 04:08:27;;;;;;;9.57;4.50;;;;;;;;;;5016238;28;20466;-84
2023/08/21 04:10:53;;;;;;;7.10;4.40;;;;;;;;;;5022100;28;20040;-83
2023/08/21 04:13:20;;;;;;;9.07;4.65;;;;;;;;;;5011653;28;20421;-84
2023/08/21 04:15:46;;;;;;;7.30;4.55;;;;;;;;;;5012837;28;20038;-85
2023/08/21 04:18:12;;;;;;;6.82;4.50;;;;;;;;;;5016800;28;20057;-86
2023/08/21 04:20:37;;;;;;;8.80;4.90;;;;;;;;;;5000113;28;20041;-84
2023/08/21 04:23:03;;;;;;;6.18;4.07;;;;;;;;;;5016918;28;20030;-83
2023/08/21 04:25:28;;;;;;;8.00;4.53;;;;;;;;;;5025904;28;20116;-83
2023/08/21 04:27:54;;;;;;;8.50;4.03;;;;;;;;;;5016432;28;20040;-84
2023/08/21 04:30:21;;;;;;;7.82;4.15;;;;;;;;;;5007012;28;20026;-84
2023/08/21 04:32:48;;;;;;;6.20;4.07;;;;;;;;;;5019427;28;20404;-85
2023/08/21 04:35:14;;;;;;;7.13;4.30;;;;;;;;;;5016590;28;20041;-85
2023/08/21 04:37:47;;;;;;;8.75;4.35;;;;;;;;;;5008251;28;20037;-85
2023/08/21 04:40:14;;;;;;;13.50;4.23;;;;;;;;;;5006752;28;20532;-85
2023/08/21 04:42:39;;;;;;;8.48;4.50;;;;;;;;;;5009902;28;20045;-83
2023/08/21 04:45:05;;;;;;;6.25;4.43;;;;;;;;;;5010219;28;20033;-84
2023/08/21 04:47:33;;;;;;;4.97;3.88;;;;;;;;;;5009365;28;20029;-83
2023/08/21 04:49:59;;;;;;;5.95;4.28;;;;;;;;;;5001116;28;20060;-83
2023/08/21 04:52:26;;;;;;;7.57;4.25;;;;;;;;;;5012678;28;20087;-83
2023/08/21 04:54:53;;;;;;;8.60;3.88;;;;;;;;;;5014165;28;20467;-85
2023/08/21 04:57:21;;;;;;;8.88;4.43;;;;;;;;;;5013054;28;20083;-85
2023/08/21 04:59:47;;;;;;;5.15;4.15;;;;;;;;;;5014740;28;20123;-85
2023/08/21 05:02:13;;;;;;;9.20;4.50;;;;;;;;;;5013186;28;20037;-84
2023/08/21 05:04:39;;;;;;;8.45;4.53;;;;;;;;;;5012642;28;20551;-83
2023/08/21 05:07:05;;;;;;;6.63;4.18;;;;;;;;;;5011636;28;20034;-84
2023/08/21 05:09:32;;;;;;;10.02;4.30;;;;;;;;;;5012312;28;20033;-84
2023/08/21 05:11:58;;;;;;;8.00;4.50;;;;;;;;;;4986928;28;20025;-84
2023/08/21 05:14:24;;;;;;;7.18;4.30;;;;;;;;;;5002546;28;20065;-84
2023/08/21 05:16:50;;;;;;;10.73;4.40;;;;;;;;;;5011224;28;20159;-84
2023/08/21 05:19:16;;;;;;;9.73;4.30;;;;;;;;;;4993843;28;20037;-85
2023/08/21 05:21:42;;;;;;;10.18;4.43;;;;;;;;;;4997037;28;20040;-84
2023/08/21 05:24:08;;;;;;;9.40;4.20;;;;;;;;;;5006744;28;20026;-84
2023/08/21 05:26:37;;;;;;;6.07;4.15;;;;;;;;;;5002431;28;20091;-83
2023/08/21 05:29:03;;;;;;;6.60;4.18;;;;;;;;;;5002567;28;20041;-83
2023/08/21 05:31:29;;;;;;;8.13;4.32;;;;;;;;;;5016165;28;20026;-84
2023/08/21 05:33:54;;;;;;;6.43;4.30;;;;;;;;;;5013513;28;20477;-84
2023/08/21 05:36:20;;;;;;;5.05;4.15;;;;;;;;;;5011620;28;20038;-84
2023/08/21 05:38:47;;;;;;;8.98;4.50;;;;;;;;;;5004679;28;20030;-84
2023/08/21 05:41:14;;;;;;;9.23;4.50;;;;;;;;;;4996666;28;20033;-84
2023/08/21 05:43:42;;;;;;;7.43;3.97;;;;;;;;;;5018321;28;20033;-83
2023/08/21 05:46:08;;;;;;;9.13;4.22;;;;;;;;;;5006705;28;20029;-83
2023/08/21 05:48:34;;;;;;;5.57;4.28;;;;;;;;;;5002918;28;20030;-83
2023/08/21 05:51:00;;;;;;;7.57;3.97;;;;;;;;;;5014074;28;20030;-83
2023/08/21 05:53:25;;;;;;;6.80;3.90;;;;;;;;;;5012575;28;20033;-84
2023/08/21 05:55:53;;;;;;;6.25;3.78;;;;;;;;;;5012330;28;20476;-84
2023/08/21 05:58:19;;;;;;;9.60;4.10;;;;;;;;;;4997159;28;20033;-84
2023/08/21 06:00:46;;;;;;;5.55;3.45;;;;;;;;;;4999094;28;20032;-85
2023/08/21 06:03:13;;;;;;;9.38;3.92;;;;;;;;;;5010783;28;20119;-84
2023/08/21 06:06:05;;;;;;;7.10;4.00;;;;;;;;;;4999771;28;20908;-83
2023/08/21 06:08:31;;;;;;;8.45;4.30;;;;;;;;;;5011975;28;20051;-84
2023/08/21 06:10:56;;;;;;;7.28;3.90;;;;;;;;;;5009938;28;20030;-84
2023/08/21 06:13:22;;;;;;;10.13;4.10;;;;;;;;;;5011733;28;20117;-84
2023/08/21 06:15:50;;;;;;;7.70;3.90;;;;;;;;;;5003990;28;20033;-84
2023/08/21 06:18:17;;;;;;;7.43;3.88;;;;;;;;;;4994882;28;20116;-84
2023/08/21 06:20:46;;;;;;;7.03;3.70;;;;;;;;;;4999419;28;20165;-84
2023/08/21 06:23:12;;;;;;;4.75;3.55;;;;;;;;;;5016814;28;20034;-84
2023/08/21 06:25:37;;;;;;;7.45;3.78;;;;;;;;;;5013155;28;20057;-85
2023/08/21 06:28:04;;;;;;;8.13;4.00;;;;;;;;;;5016649;28;20036;-84
2023/08/21 06:30:29;;;;;;;6.80;3.78;;;;;;;;;;5019110;28;20026;-84
2023/08/21 06:32:55;;;;;;;6.20;3.67;;;;;;;;;;5023249;28;20036;-84
2023/08/21 06:35:21;;;;;;;8.20;3.90;;;;;;;;;;5006427;28;20124;-85
2023/08/21 06:37:47;;;;;;;5.22;3.50;;;;;;;;;;5013087;28;20056;-85
2023/08/21 06:40:12;;;;;;;8.15;3.90;;;;;;;;;;5023663;28;20504;-86
2023/08/21 06:42:38;;;;;;;5.85;3.75;;;;;;;;;;5013890;28;20038;-85
2023/08/21 06:45:05;;;;;;;8.95;4.20;;;;;;;;;;5013666;28;20116;-85
2023/08/21 06:47:31;;;;;;;7.50;4.00;;;;;;;;;;5027909;28;20119;-84
2023/08/21 06:49:56;;;;;;;8.90;4.00;;;;;;;;;;5014364;28;20485;-85
2023/08/21 06:52:22;;;;;;;7.18;3.60;;;;;;;;;;5012382;28;20440;-84
2023/08/21 06:54:47;;;;;;;8.73;3.92;;;;;;;;;;5020679;28;20101;-84
2023/08/21 06:57:13;;;;;;;5.95;3.80;;;;;;;;;;5020669;28;20210;-84
2023/08/21 06:59:38;;;;;;;5.22;3.70;;;;;;;;;;5003428;28;20034;-84
2023/08/21 07:02:04;;;;;;;6.47;3.80;;;;;;;;;;5013169;28;20427;-84
2023/08/21 07:04:29;;;;;;;4.88;3.70;;;;;;;;;;5012802;28;20029;-85
2023/08/21 07:06:55;;;;;;;5.05;3.47;;;;;;;;;;5025330;28;20641;-84
2023/08/21 07:09:20;;;;;;;6.25;3.38;;;;;;;;;;5018018;28;20045;-85
2023/08/21 07:11:46;;;;;;;6.78;3.58;;;;;;;;;;5013676;28;20034;-84
2023/08/21 07:14:13;;;;;;;6.25;3.88;;;;;;;;;;5021118;28;20045;-84
2023/08/21 07:16:39;;;;;;;8.65;3.70;;;;;;;;;;5024164;28;20038;-85
2023/08/21 07:19:05;;;;;;;6.90;3.80;;;;;;;;;;5011913;28;20037;-86
2023/08/21 07:21:30;;;;;;;7.97;3.65;;;;;;;;;;5024830;28;20034;-85
2023/08/21 07:23:56;;;;;;;7.47;3.90;;;;;;;;;;5002204;28;20096;-86
2023/08/21 07:26:21;;;;;;;6.40;3.60;;;;;;;;;;5018390;28;20029;-84
2023/08/21 07:28:47;;;;;;;7.32;4.32;;;;;;;;;;5006952;28;20053;-85
2023/08/21 07:31:12;;;;;;;8.57;3.45;;;;;;;;;;5009392;28;20057;-86
2023/08/21 07:33:38;;;;;;;6.38;3.70;;;;;;;;;;5020649;28;20073;-85
2023/08/21 07:36:05;;;;;;;9.23;4.03;;;;;;;;;;5017196;28;20099;-85
2023/08/21 07:38:31;;;;;;;7.93;3.70;;;;;;;;;;5022359;28;20042;-85
2023/08/21 07:41:10;;;;;;;6.90;3.75;;;;;;;;;;5024847;28;20092;-84
2023/08/21 07:43:37;;;;;;;7.15;3.70;;;;;;;;;;5006733;28;20046;-85
2023/08/21 07:46:07;;;;;;;7.18;3.22;;;;;;;;;;5016699;28;20034;-85
2023/08/21 07:48:33;;;;;;;8.73;3.22;;;;;;;;;;5029827;28;20516;-85
2023/08/21 07:50:59;;;;;;;6.90;3.55;;;;;;;;;;5024817;28;20057;-85
2023/08/21 07:53:25;;;;;;;7.65;4.03;;;;;;;;;;5019447;28;20775;-85
2023/08/21 07:55:51;;;;;;;9.35;3.90;;;;;;;;;;5020964;28;20523;-85
2023/08/21 07:58:17;;;;;;;7.32;3.60;;;;;;;;;;5018593;28;20022;-85
2023/08/21 08:00:43;;;;;;;6.88;3.78;;;;;;;;;;5011160;28;20073;-85
2023/08/21 08:03:10;;;;;;;8.30;3.75;;;;;;;;;;5018675;28;20030;-85
2023/08/21 08:05:36;;;;;;;5.63;3.70;;;;;;;;;;5026326;28;20041;-84
2023/08/21 08:08:02;;;;;;;5.05;3.83;;;;;;;;;;5009747;28;20087;-86
2023/08/21 08:10:28;;;;;;;6.90;3.90;;;;;;;;;;5017568;28;20038;-85
2023/08/21 08:12:54;;;;;;;8.70;4.07;;;;;;;;;;5028411;28;20033;-85
2023/08/21 08:15:20;;;;;;;7.82;3.92;;;;;;;;;;5024788;28;20037;-85
2023/08/21 08:17:45;;;;;;;7.22;3.40;;;;;;;;;;5019538;28;20112;-85
2023/08/21 08:20:12;;;;;;;10.90;3.50;;;;;;;;;;5022826;28;20069;-85
2023/08/21 08:22:37;;;;;;;5.53;3.70;;;;;;;;;;5017933;28;20116;-85
2023/08/21 08:25:05;;;;;;;7.38;3.90;;;;;;;;;;5023879;28;20065;-85
2023/08/21 08:27:32;;;;;;;6.55;3.92;;;;;;;;;;5019293;28;20065;-85
2023/08/21 08:29:57;;;;;;;7.32;3.80;;;;;;;;;;5021741;28;20089;-87
2023/08/21 08:32:23;;;;;;;6.10;3.75;;;;;;;;;;5020518;28;20042;-87
2023/08/21 08:34:49;;;;;;;9.45;3.72;;;;;;;;;;5015336;28;20038;-86
2023/08/21 08:37:14;;;;;;;4.88;3.40;;;;;;;;;;5025813;28;20029;-86
2023/08/21 08:39:40;;;;;;;7.90;3.70;;;;;;;;;;5027376;28;20799;-86
2023/08/21 08:42:06;;;;;;;9.10;3.70;;;;;;;;;;5023262;28;20266;-86
2023/08/21 08:44:38;;;;;;;6.90;3.67;;;;;;;;;;5024650;28;20116;-86
2023/08/21 08:47:04;;;;;;;7.80;4.00;;;;;;;;;;5031907;28;20511;-87
2023/08/21 08:49:31;;;;;;;7.10;3.90;;;;;;;;;;5029942;28;20057;-86
2023/08/21 08:51:57;;;;;;;5.85;3.65;;;;;;;;;;5034512;28;20096;-86
2023/08/21 08:54:25;;;;;;;5.70;3.90;;;;;;;;;;5026350;28;20041;-86
2023/08/21 08:56:51;;;;;;;5.75;3.50;;;;;;;;;;5022108;28;20549;-85
2023/08/21 08:59:16;;;;;;;6.95;3.63;;;;;;;;;;5026157;28;20049;-86
2023/08/21 09:01:42;;;;;;;8.05;3.60;;;;;;;;;;5030315;28;20044;-86
2023/08/21 09:04:08;;;;;;;6.05;3.30;;;;;;;;;;5024985;28;20033;-85
2023/08/21 09:06:34;;;;;;;7.07;3.63;;;;;;;;;;5020459;28;20042;-86
2023/08/21 09:09:00;;;;;;;10.25;4.00;;;;;;;;;;5023766;28;20483;-85
2023/08/21 09:11:26;;;;;;;6.00;3.45;;;;;;;;;;5030533;28;20041;-86
2023/08/21 09:13:53;;;;;;;6.53;3.70;;;;;;;;;;5012822;28;20113;-85
2023/08/21 09:16:20;;;;;;;5.90;3.65;;;;;;;;;;5022560;28;20057;-86
2023/08/21 09:18:49;;;;;;;5.97;3.70;;;;;;;;;;5027437;28;20174;-86
2023/08/21 09:21:19;;;;;;;9.55;3.58;;;;;;;;;;5033516;28;20133;-86
2023/08/21 09:23:48;;;;;;;11.68;3.90;;;;;;;;;;5021185;28;20041;-86
2023/08/21 09:26:23;;;;;;;7.22;3.63;;;;;;;;;;5033290;28;20166;-86
2023/08/21 09:28:50;;;;;;;7.20;3.90;;;;;;;;;;5022613;28;20045;-85
2023/08/21 09:31:16;;;;;;;11.02;3.90;;;;;;;;;;5003995;28;20026;-84
2023/08/21 09:33:42;;;;;;;7.05;3.50;;;;;;;;;;5020766;28;20104;-85
2023/08/21 09:36:09;;;;;;;8.18;3.63;;;;;;;;;;5023266;28;20455;-85
2023/08/21 09:38:37;;;;;;;9.10;3.78;;;;;;;;;;5003640;28;20062;-85
2023/08/21 09:41:03;;;;;;;6.95;3.50;;;;;;;;;;5006253;28;20033;-85
2023/08/21 09:43:28;;;;;;;8.95;3.92;;;;;;;;;;5026340;28;20056;-86
2023/08/21 09:45:57;;;;;;;5.30;3.50;;;;;;;;;;5029766;28;20044;-86
2023/08/21 09:48:28;;;;;;;10.27;3.95;;;;;;;;;;5025925;28;20052;-86
2023/08/21 09:50:55;;;;;;;5.90;3.50;;;;;;;;;;5021824;28;20563;-86
2023/08/21 09:53:24;;;;;;;5.80;3.90;;;;;;;;;;5034981;28;20040;-87
2023/08/21 09:55:55;;;;;;;8.93;3.88;;;;;;;;;;5019743;28;20072;-87
2023/08/21 09:58:21;;;;;;;5.40;3.70;;;;;;;;;;5028717;28;20041;-87
2023/08/21 10:00:48;;;;;;;6.70;3.72;;;;;;;;;;5028151;28;20044;-85
2023/08/21 10:03:18;;;;;;;6.55;4.03;;;;;;;;;;5019998;28;20477;-87
2023/08/21 10:05:44;;;;;;;5.40;3.90;;;;;;;;;;5022825;28;20044;-87
2023/08/21 10:08:10;;;;;;;5.75;3.75;;;;;;;;;;5027375;28;20026;-86
2023/08/21 10:10:38;;;;;;;8.85;3.78;;;;;;;;;;5026171;28;20068;-86
2023/08/21 10:13:05;;;;;;;6.80;3.88;;;;;;;;;;5011103;28;20045;-86
2023/08/21 10:15:36;;;;;;;8.73;3.95;;;;;;;;;;5020409;28;20038;-86
2023/08/21 10:18:25;;;;;;;9.15;4.38;;;;;;;;;;4999173;28;20053;-86
2023/08/21 10:20:52;;;;;;;12.32;4.30;;;;;;;;;;5028413;28;20087;-87
2023/08/21 10:23:28;;;;;;;7.72;4.30;;;;;;;;;;5023240;28;20038;-86
2023/08/21 10:25:58;;;;;;;7.63;4.10;;;;;;;;;;5022439;28;20048;-86
2023/08/21 10:28:24;;;;;;;10.90;4.35;;;;;;;;;;5018450;28;20037;-87
2023/08/21 10:30:50;;;;;;;9.10;4.30;;;;;;;;;;5017989;28;20044;-86
2023/08/21 10:33:15;;;;;;;8.02;3.95;;;;;;;;;;5023182;28;20033;-86
2023/08/21 10:35:41;;;;;;;7.88;3.97;;;;;;;;;;5022198;28;20070;-86
2023/08/21 10:38:07;;;;;;;7.65;4.07;;;;;;;;;;5019278;28;20065;-86
2023/08/21 10:40:34;;;;;;;10.63;4.18;;;;;;;;;;5023669;28;20061;-87
2023/08/21 10:43:00;;;;;;;13.05;4.25;;;;;;;;;;5030735;28;20022;-87
2023/08/21 10:45:25;;;;;;;10.50;4.32;;;;;;;;;;5023400;28;20022;-87
2023/08/21 10:47:51;;;;;;;10.27;4.50;;;;;;;;;;5016060;28;20499;-87
2023/08/21 10:50:16;;;;;;;8.38;4.68;;;;;;;;;;5015875;28;20127;-85
2023/08/21 10:52:46;;;;;;;9.60;4.60;;;;;;;;;;5028936;28;20038;-85
2023/08/21 10:55:13;;;;;;;6.57;3.95;;;;;;;;;;4987551;28;20036;-84
2023/08/21 10:57:43;;;;;;;7.82;4.70;;;;;;;;;;5020132;28;20456;-86
2023/08/21 11:00:14;;;;;;;6.40;4.45;;;;;;;;;;5016451;28;20033;-85
2023/08/21 11:02:42;;;;;;;9.13;4.95;;;;;;;;;;5031411;28;20036;-85
2023/08/21 11:05:09;;;;;;;8.55;4.45;;;;;;;;;;5027035;28;20022;-86
2023/08/21 11:07:53;;;;;;;8.27;4.70;;;;;;;;;;5015416;28;20041;-86
2023/08/21 11:10:23;;;;;;;6.90;4.57;;;;;;;;;;5019679;28;20056;-86
2023/08/21 11:12:56;;;;;;;7.97;4.80;;;;;;;;;;5014984;28;20081;-87
2023/08/21 11:15:23;;;;;;;9.45;4.80;;;;;;;;;;5018636;28;20061;-87
2023/08/21 11:18:02;;;;;;;9.85;4.88;;;;;;;;;;4993317;28;20500;-86
2023/08/21 11:20:37;;;;;;;9.65;4.68;;;;;;;;;;5025507;28;20048;-87
2023/08/21 11:23:07;;;;;;;8.20;4.90;;;;;;;;;;5018053;28;20034;-85
2023/08/21 11:25:40;;;;;;;10.00;4.72;;;;;;;;;;5013686;28;20735;-84
2023/08/21 11:28:06;;;;;;;;;;;;;;;;;;5024996;28;20037;-85
2023/08/21 11:30:34;;;;;;;9.30;4.70;;;;;;;;;;5024185;28;19905;-84
2023/08/21 11:33:09;;;;;;;7.88;4.65;;;;;;;;;;5023305;28;20432;-84
2023/08/21 11:35:36;;;;;;;8.13;4.65;;;;;;;;;;5024290;28;20040;-84
2023/08/21 11:38:01;;;;;;;8.73;4.53;;;;;;;;;;5023672;28;20025;-84
2023/08/21 11:40:27;;;;;;;10.55;4.45;;;;;;;;;;5023355;28;20399;-86
2023/08/21 11:42:59;;;;;;;10.48;4.50;;;;;;;;;;5026677;28;20041;-86
2023/08/21 11:45:25;;;;;;;10.07;5.18;;;;;;;;;;5024286;28;20089;-86
2023/08/21 11:47:55;;;;;;;13.93;4.80;;;;;;;;;;5012782;28;20067;-85
2023/08/21 11:50:20;;;;;;;7.32;4.53;;;;;;;;;;5027748;28;20034;-85
2023/08/21 11:52:46;;;;;;;8.93;4.70;;;;;;;;;;5029974;28;20115;-84
2023/08/21 11:55:11;;;;;;;9.07;4.32;;;;;;;;;;5024628;28;20053;-84
2023/08/21 11:57:51;;;;;;;7.20;4.43;;;;;;;;;;5014736;28;20065;-84
2023/08/21 12:00:22;;;;;;;8.18;4.50;;;;;;;;;;5026379;28;20140;-84
2023/08/21 12:03:08;;;;;;;9.80;4.32;;;;;;;;;;5032176;28;20467;-84
2023/08/21 12:05:33;;;;;;;5.50;4.20;;;;;;;;;;5025688;28;20038;-84
2023/08/21 12:07:59;;;;;;;7.47;4.55;;;;;;;;;;5022258;28;20038;-83
2023/08/21 12:10:25;;;;;;;8.88;4.32;;;;;;;;;;5021517;28;20036;-86
2023/08/21 12:12:51;;;;;;;8.38;4.40;;;;;;;;;;5020594;28;20116;-86
2023/08/21 12:15:16;;;;;;;8.15;4.40;;;;;;;;;;5024449;28;20069;-86
2023/08/21 12:17:42;;;;;;;9.93;4.28;;;;;;;;;;5027068;28;20041;-85
2023/08/21 12:20:10;;;;;;;7.68;4.10;;;;;;;;;;5027854;28;20041;-84
2023/08/21 12:22:37;;;;;;;8.80;4.07;;;;;;;;;;5005362;28;20040;-84
2023/08/21 12:25:03;;;;;;;5.38;3.90;;;;;;;;;;5021572;28;20040;-84
2023/08/21 12:27:29;;;;;;;8.93;4.40;;;;;;;;;;5025903;28;20041;-85
2023/08/21 12:29:54;;;;;;;6.50;4.13;;;;;;;;;;5027072;28;20092;-86
2023/08/21 12:32:20;;;;;;;8.52;3.95;;;;;;;;;;5007646;28;20096;-86
2023/08/21 12:34:45;;;;;;;7.93;3.88;;;;;;;;;;5017824;28;20042;-85
2023/08/21 12:37:11;;;;;;;8.48;3.72;;;;;;;;;;5020830;28;20045;-84
2023/08/21 12:39:37;;;;;;;10.52;4.22;;;;;;;;;;5018800;28;20060;-84
2023/08/21 12:42:03;;;;;;;7.72;3.80;;;;;;;;;;5025172;28;20037;-83
2023/08/21 12:44:28;;;;;;;7.68;4.40;;;;;;;;;;5010580;28;20405;-84
2023/08/21 12:46:54;;;;;;;5.15;3.80;;;;;;;;;;5022105;28;20037;-85
2023/08/21 12:49:19;;;;;;;5.63;3.72;;;;;;;;;;5020981;28;20093;-87
2023/08/21 12:51:45;;;;;;;11.27;4.25;;;;;;;;;;5012754;28;20041;-86
2023/08/21 12:54:10;;;;;;;9.55;3.72;;;;;;;;;;5023048;28;20029;-84
2023/08/21 12:56:36;;;;;;;8.48;3.83;;;;;;;;;;5020951;28;20041;-84
2023/08/21 12:59:02;;;;;;;8.88;3.95;;;;;;;;;;5025770;28;20469;-84
2023/08/21 13:01:29;;;;;;;10.13;3.97;;;;;;;;;;5031167;28;20496;-84
2023/08/21 13:03:55;;;;;;;8.25;4.18;;;;;;;;;;5026525;28;20037;-84
2023/08/21 13:06:20;;;;;;;7.75;3.45;;;;;;;;;;5021347;28;20045;-85
2023/08/21 13:08:46;;;;;;;8.32;4.22;;;;;;;;;;5020077;28;20029;-86
2023/08/21 13:11:12;;;;;;;6.50;3.90;;;;;;;;;;5017325;28;20037;-87
2023/08/21 13:13:37;;;;;;;7.65;3.97;;;;;;;;;;5022147;28;20038;-83
2023/08/21 13:16:03;;;;;;;8.00;3.83;;;;;;;;;;5022609;28;20029;-87
2023/08/21 13:18:28;;;;;;;10.27;3.67;;;;;;;;;;5020514;28;20041;-84
2023/08/21 13:20:54;;;;;;;7.65;3.88;;;;;;;;;;5017490;28;20044;-84
2023/08/21 13:23:19;;;;;;;11.73;4.00;;;;;;;;;;5019781;28;20038;-85
2023/08/21 13:25:45;;;;;;;7.90;3.70;;;;;;;;;;5024314;28;20117;-86
2023/08/21 13:28:10;;;;;;;9.32;4.03;;;;;;;;;;5026443;28;20485;-85
2023/08/21 13:30:36;;;;;;;10.38;4.03;;;;;;;;;;5020563;28;20075;-83
2023/08/21 13:33:03;;;;;;;8.85;4.07;;;;;;;;;;5018330;28;20400;-84
2023/08/21 13:35:29;;;;;;;9.23;3.63;;;;;;;;;;5020720;28;20040;-85
2023/08/21 13:37:55;;;;;;;10.98;4.15;;;;;;;;;;5025858;28;20064;-85
2023/08/21 13:40:20;;;;;;;6.68;3.88;;;;;;;;;;5024113;28;20527;-86
2023/08/21 13:42:48;;;;;;;8.88;3.90;;;;;;;;;;5018774;28;20045;-85
2023/08/21 13:45:16;;;;;;;9.50;3.55;;;;;;;;;;5013952;28;20038;-86
2023/08/21 13:47:49;;;;;;;8.98;3.90;;;;;;;;;;5022161;28;20508;-85
2023/08/21 13:50:15;;;;;;;;;;;;;;;;;;5024624;28;20056;-84
2023/08/21 13:52:42;;;;;;;8.70;4.05;;;;;;;;;;5021833;28;20276;-83
2023/08/21 13:55:11;;;;;;;8.90;3.75;;;;;;;;;;5009744;28;20476;-84
2023/08/21 13:57:37;;;;;;;8.90;3.58;;;;;;;;;;5017760;28;20042;-83
2023/08/21 14:00:07;;;;;;;7.55;3.53;;;;;;;;;;5029161;28;20060;-83
2023/08/21 14:02:36;;;;;;;5.97;3.45;;;;;;;;;;5028883;28;20030;-85
2023/08/21 14:05:05;;;;;;;9.77;3.72;;;;;;;;;;5026079;28;20075;-86
2023/08/21 14:07:31;;;;;;;6.88;3.65;;;;;;;;;;5022021;28;20109;-86
2023/08/21 14:09:56;;;;;;;8.07;3.45;;;;;;;;;;5034852;28;20040;-86
2023/08/21 14:12:22;;;;;;;7.57;4.00;;;;;;;;;;5030150;28;20021;-84
2023/08/21 14:14:48;;;;;;;7.47;3.90;;;;;;;;;;5012014;28;20052;-84
2023/08/21 14:17:13;;;;;;;6.85;3.60;;;;;;;;;;5031137;28;20037;-85
2023/08/21 14:19:45;;;;;;;9.50;3.80;;;;;;;;;;5124585;27;20492;-85
2023/08/21 14:22:11;;;;;;;8.05;3.63;;;;;;;;;;5121032;28;20032;-87
2023/08/21 14:24:36;;;;;;;8.05;3.83;;;;;;;;;;5126154;27;20015;-86
2023/08/21 14:27:02;;;;;;;11.27;3.72;;;;;;;;;;5122234;28;20055;-86
2023/08/21 14:29:27;;;;;;;6.13;3.63;;;;;;;;;;5119453;28;20023;-85
2023/08/21 14:31:57;;;;;;;7.75;3.40;;;;;;;;;;5111344;28;20016;-85
2023/08/21 14:34:22;;;;;;;6.85;3.75;;;;;;;;;;5104532;28;20027;-85
2023/08/21 14:36:48;;;;;;;9.55;3.90;;;;;;;;;;5110881;28;20084;-85
2023/08/21 14:39:14;;;;;;;9.57;3.58;;;;;;;;;;5112519;28;20123;-85
2023/08/21 14:41:43;;;;;;;6.03;3.47;;;;;;;;;;5107475;28;20047;-85